Portada
METAR-TAF:

METAR-TAF

Aeroports :

Shijiazhuang, Xina

latitud: 38-16-51N, longitud: 114-41-48E, altitud: 233 m

Observació

L'informe es va fer fa 30 minuts, a les 10:00 UTC
Vent 4 kt del Est/Sud-Est, variant entre Nord/Nord-Est i Sud-Est
Temperatura 31°C
Humitat 66%
Pressió 1004 hPa
Visibilitat: 5000 m
Escasses núvols a una alçada de 4000 ft
calitja

METAR: ZBSJ 171000Z 11002MPS 020V140 5000 HZ FEW040 31/24 Q1004 NOSIG

Hora: 18:30 (10:30 UTC)

Pronòstic

L'informe es va fer fa 9 hores i 21 minuts, a les 01:09 UTC
Pronòstic vàlid del 17 a les 06 UTC al 18 a les 06 UTC
Vent 8 kt del Sud
Visibilitat: 5000 m
calitja
Temporalment
l' 17 a les 08 UTC al 17 a les 12 UTC
Escasses núvols a una alçada de 3000 ft, Cumulonimbus.
Cel ennuvolat a una alçada de 4000 ft
tempesta, pluja

TAF: ZBSJ 170109Z 1706/1806 18004MPS 5000 HZ NSC TX33/1707Z TN23/1721Z TEMPO 1708/1712 -TSRA FEW030CB BKN040

Observacions i pronòstics meteorològics de més de 4000 aeroports (METAR i TAF).

Les estacions disponibles són els punts grocs i vermells al mapa.

Posi el ratolí al punt desitjat per veure el nom de l'estació.

Feu clic per veure les observacions i els pronòstics meteorològics.

Per canviar el mapa: feu clic els botons verds amb una creu de color negre per apropar; al botó verd amb un guió per allunyar la imatge; o en les fletxes verdes per a mapes adjacents.


METAR-TAF: